sensor_id;sensor_type;location;lat;lon;timestamp;P1;durP1;ratioP1;P2;durP2;ratioP2
16478;SDS011;8350;52.316;10.530;2022-12-05T00:00:57;77.75;;;38.25;;
16478;SDS011;8350;52.316;10.530;2022-12-05T00:03:25;72.20;;;37.63;;
16478;SDS011;8350;52.316;10.530;2022-12-05T00:05:52;72.93;;;34.53;;
16478;SDS011;8350;52.316;10.530;2022-12-05T00:08:20;75.55;;;37.05;;
16478;SDS011;8350;52.316;10.530;2022-12-05T00:10:49;77.00;;;36.38;;
16478;SDS011;8350;52.316;10.530;2022-12-05T00:13:16;72.75;;;36.78;;
16478;SDS011;8350;52.316;10.530;2022-12-05T00:15:48;78.45;;;36.30;;
16478;SDS011;8350;52.316;10.530;2022-12-05T00:18:15;69.55;;;35.22;;
16478;SDS011;8350;52.316;10.530;2022-12-05T00:20:43;76.30;;;37.95;;
16478;SDS011;8350;52.316;10.530;2022-12-05T00:23:10;69.65;;;37.22;;
16478;SDS011;8350;52.316;10.530;2022-12-05T00:25:37;72.00;;;35.63;;
16478;SDS011;8350;52.316;10.530;2022-12-05T00:28:05;67.45;;;36.00;;
16478;SDS011;8350;52.316;10.530;2022-12-05T00:30:34;68.90;;;35.42;;
16478;SDS011;8350;52.316;10.530;2022-12-05T00:33:02;74.10;;;37.15;;
16478;SDS011;8350;52.316;10.530;2022-12-05T00:35:29;68.93;;;34.13;;
16478;SDS011;8350;52.316;10.530;2022-12-05T00:37:59;64.85;;;33.13;;
16478;SDS011;8350;52.316;10.530;2022-12-05T00:40:26;66.55;;;33.33;;
16478;SDS011;8350;52.316;10.530;2022-12-05T00:42:53;70.07;;;34.45;;
16478;SDS011;8350;52.316;10.530;2022-12-05T00:45:20;68.75;;;35.33;;
16478;SDS011;8350;52.316;10.530;2022-12-05T00:47:47;64.97;;;34.20;;
16478;SDS011;8350;52.316;10.530;2022-12-05T00:50:16;68.72;;;35.25;;
16478;SDS011;8350;52.316;10.530;2022-12-05T00:52:43;73.50;;;34.47;;
16478;SDS011;8350;52.316;10.530;2022-12-05T00:55:10;65.88;;;33.55;;
16478;SDS011;8350;52.316;10.530;2022-12-05T00:57:37;62.35;;;35.25;;
16478;SDS011;8350;52.316;10.530;2022-12-05T01:00:05;65.70;;;35.72;;
16478;SDS011;8350;52.316;10.530;2022-12-05T01:02:34;65.35;;;32.13;;
16478;SDS011;8350;52.316;10.530;2022-12-05T01:05:01;63.38;;;34.38;;
16478;SDS011;8350;52.316;10.530;2022-12-05T01:07:30;62.60;;;33.70;;
16478;SDS011;8350;52.316;10.530;2022-12-05T01:09:59;61.35;;;32.55;;
16478;SDS011;8350;52.316;10.530;2022-12-05T01:12:26;57.33;;;31.27;;
16478;SDS011;8350;52.316;10.530;2022-12-05T01:14:56;57.80;;;33.33;;
16478;SDS011;8350;52.316;10.530;2022-12-05T01:17:23;61.03;;;30.52;;
16478;SDS011;8350;52.316;10.530;2022-12-05T01:19:50;61.97;;;31.05;;
16478;SDS011;8350;52.316;10.530;2022-12-05T01:22:17;58.47;;;29.63;;
16478;SDS011;8350;52.316;10.530;2022-12-05T01:24:45;56.75;;;30.83;;
16478;SDS011;8350;52.316;10.530;2022-12-05T01:27:12;59.42;;;29.88;;
16478;SDS011;8350;52.316;10.530;2022-12-05T01:29:40;61.53;;;30.10;;
16478;SDS011;8350;52.316;10.530;2022-12-05T01:32:07;53.58;;;27.13;;
16478;SDS011;8350;52.316;10.530;2022-12-05T01:34:34;50.28;;;28.27;;
16478;SDS011;8350;52.316;10.530;2022-12-05T01:37:01;48.22;;;27.27;;
16478;SDS011;8350;52.316;10.530;2022-12-05T01:39:28;52.83;;;30.25;;
16478;SDS011;8350;52.316;10.530;2022-12-05T01:41:57;52.53;;;27.15;;
16478;SDS011;8350;52.316;10.530;2022-12-05T01:47:27;52.88;;;28.60;;
16478;SDS011;8350;52.316;10.530;2022-12-05T01:49:56;52.53;;;27.17;;
16478;SDS011;8350;52.316;10.530;2022-12-05T01:52:25;51.78;;;29.40;;
16478;SDS011;8350;52.316;10.530;2022-12-05T01:54:54;50.17;;;25.90;;
16478;SDS011;8350;52.316;10.530;2022-12-05T01:57:25;51.92;;;28.08;;
16478;SDS011;8350;52.316;10.530;2022-12-05T01:59:53;55.90;;;28.75;;
16478;SDS011;8350;52.316;10.530;2022-12-05T02:02:23;48.53;;;28.02;;
16478;SDS011;8350;52.316;10.530;2022-12-05T02:04:54;51.85;;;29.10;;
16478;SDS011;8350;52.316;10.530;2022-12-05T02:07:27;52.38;;;29.42;;
16478;SDS011;8350;52.316;10.530;2022-12-05T02:09:55;53.90;;;27.50;;
16478;SDS011;8350;52.316;10.530;2022-12-05T02:12:22;56.65;;;28.10;;
16478;SDS011;8350;52.316;10.530;2022-12-05T02:14:58;51.53;;;26.17;;
16478;SDS011;8350;52.316;10.530;2022-12-05T02:17:36;44.85;;;24.42;;
16478;SDS011;8350;52.316;10.530;2022-12-05T02:20:21;47.85;;;28.17;;
16478;SDS011;8350;52.316;10.530;2022-12-05T02:23:04;46.08;;;24.23;;
16478;SDS011;8350;52.316;10.530;2022-12-05T02:32:12;40.35;;;23.90;;
16478;SDS011;8350;52.316;10.530;2022-12-05T02:34:44;43.22;;;24.90;;
16478;SDS011;8350;52.316;10.530;2022-12-05T02:37:20;36.17;;;22.67;;
16478;SDS011;8350;52.316;10.530;2022-12-05T02:39:55;46.95;;;26.52;;
16478;SDS011;8350;52.316;10.530;2022-12-05T02:42:29;43.42;;;24.67;;
16478;SDS011;8350;52.316;10.530;2022-12-05T02:45:04;41.88;;;25.77;;
16478;SDS011;8350;52.316;10.530;2022-12-05T02:47:36;39.72;;;23.58;;
16478;SDS011;8350;52.316;10.530;2022-12-05T02:50:07;44.28;;;24.23;;
16478;SDS011;8350;52.316;10.530;2022-12-05T02:52:37;41.25;;;25.02;;
16478;SDS011;8350;52.316;10.530;2022-12-05T02:55:05;43.58;;;24.88;;
16478;SDS011;8350;52.316;10.530;2022-12-05T02:57:34;40.78;;;23.88;;
16478;SDS011;8350;52.316;10.530;2022-12-05T03:00:05;42.17;;;24.10;;
16478;SDS011;8350;52.316;10.530;2022-12-05T03:02:33;42.72;;;23.85;;
16478;SDS011;8350;52.316;10.530;2022-12-05T03:05:03;48.03;;;24.90;;
16478;SDS011;8350;52.316;10.530;2022-12-05T03:07:43;43.67;;;24.95;;
16478;SDS011;8350;52.316;10.530;2022-12-05T03:10:13;40.20;;;25.00;;
16478;SDS011;8350;52.316;10.530;2022-12-05T03:12:45;38.80;;;24.23;;
16478;SDS011;8350;52.316;10.530;2022-12-05T03:15:19;45.60;;;25.17;;
16478;SDS011;8350;52.316;10.530;2022-12-05T03:18:04;52.17;;;27.27;;
16478;SDS011;8350;52.316;10.530;2022-12-05T03:20:36;45.10;;;24.25;;
16478;SDS011;8350;52.316;10.530;2022-12-05T03:23:09;40.60;;;24.17;;
16478;SDS011;8350;52.316;10.530;2022-12-05T03:25:42;40.65;;;23.60;;
16478;SDS011;8350;52.316;10.530;2022-12-05T03:28:16;42.58;;;23.63;;
16478;SDS011;8350;52.316;10.530;2022-12-05T03:30:50;38.53;;;23.13;;
16478;SDS011;8350;52.316;10.530;2022-12-05T03:33:21;36.03;;;22.83;;
16478;SDS011;8350;52.316;10.530;2022-12-05T03:35:56;39.88;;;22.73;;
16478;SDS011;8350;52.316;10.530;2022-12-05T03:38:27;41.45;;;22.23;;
16478;SDS011;8350;52.316;10.530;2022-12-05T03:41:01;39.60;;;23.27;;
16478;SDS011;8350;52.316;10.530;2022-12-05T03:43:34;46.55;;;23.48;;
16478;SDS011;8350;52.316;10.530;2022-12-05T03:46:08;38.13;;;22.52;;
16478;SDS011;8350;52.316;10.530;2022-12-05T03:48:42;48.70;;;24.08;;
16478;SDS011;8350;52.316;10.530;2022-12-05T03:51:15;47.58;;;23.90;;
16478;SDS011;8350;52.316;10.530;2022-12-05T03:53:46;38.83;;;23.15;;
16478;SDS011;8350;52.316;10.530;2022-12-05T03:56:18;39.38;;;23.10;;
16478;SDS011;8350;52.316;10.530;2022-12-05T03:58:50;43.47;;;22.60;;
16478;SDS011;8350;52.316;10.530;2022-12-05T04:01:23;41.13;;;23.20;;
16478;SDS011;8350;52.316;10.530;2022-12-05T04:03:55;44.58;;;23.08;;
16478;SDS011;8350;52.316;10.530;2022-12-05T04:06:25;46.90;;;23.15;;
16478;SDS011;8350;52.316;10.530;2022-12-05T04:08:57;46.17;;;23.90;;
16478;SDS011;8350;52.316;10.530;2022-12-05T04:11:32;45.25;;;24.90;;
16478;SDS011;8350;52.316;10.530;2022-12-05T04:14:04;50.28;;;25.40;;
16478;SDS011;8350;52.316;10.530;2022-12-05T04:16:37;52.85;;;25.63;;
16478;SDS011;8350;52.316;10.530;2022-12-05T04:19:26;52.60;;;26.38;;
16478;SDS011;8350;52.316;10.530;2022-12-05T04:22:28;50.92;;;25.23;;
16478;SDS011;8350;52.316;10.530;2022-12-05T04:24:54;46.70;;;24.95;;
16478;SDS011;8350;52.316;10.530;2022-12-05T04:27:41;52.28;;;27.10;;
16478;SDS011;8350;52.316;10.530;2022-12-05T04:30:17;48.17;;;25.17;;
16478;SDS011;8350;52.316;10.530;2022-12-05T04:32:48;55.25;;;28.40;;
16478;SDS011;8350;52.316;10.530;2022-12-05T04:35:25;43.83;;;24.90;;
16478;SDS011;8350;52.316;10.530;2022-12-05T04:37:57;43.70;;;23.80;;
16478;SDS011;8350;52.316;10.530;2022-12-05T04:40:30;42.00;;;23.17;;
16478;SDS011;8350;52.316;10.530;2022-12-05T04:43:01;44.45;;;23.70;;
16478;SDS011;8350;52.316;10.530;2022-12-05T04:45:29;47.97;;;23.60;;
16478;SDS011;8350;52.316;10.530;2022-12-05T04:48:00;48.25;;;24.77;;
16478;SDS011;8350;52.316;10.530;2022-12-05T04:50:32;40.35;;;23.08;;
16478;SDS011;8350;52.316;10.530;2022-12-05T04:53:01;42.72;;;22.80;;
16478;SDS011;8350;52.316;10.530;2022-12-05T04:55:29;49.00;;;23.05;;
16478;SDS011;8350;52.316;10.530;2022-12-05T04:58:01;43.92;;;23.42;;
16478;SDS011;8350;52.316;10.530;2022-12-05T05:00:34;47.25;;;24.52;;
16478;SDS011;8350;52.316;10.530;2022-12-05T05:03:13;37.05;;;23.35;;
16478;SDS011;8350;52.316;10.530;2022-12-05T05:05:44;46.10;;;25.20;;
16478;SDS011;8350;52.316;10.530;2022-12-05T05:08:20;45.03;;;21.85;;
16478;SDS011;8350;52.316;10.530;2022-12-05T05:10:51;48.00;;;25.42;;
16478;SDS011;8350;52.316;10.530;2022-12-05T05:13:26;43.15;;;23.10;;
16478;SDS011;8350;52.316;10.530;2022-12-05T05:15:53;45.83;;;23.17;;
16478;SDS011;8350;52.316;10.530;2022-12-05T05:18:22;48.35;;;23.67;;
16478;SDS011;8350;52.316;10.530;2022-12-05T05:20:49;46.83;;;24.13;;
16478;SDS011;8350;52.316;10.530;2022-12-05T05:23:16;47.28;;;24.20;;
16478;SDS011;8350;52.316;10.530;2022-12-05T05:25:43;51.15;;;24.05;;
16478;SDS011;8350;52.316;10.530;2022-12-05T05:28:10;37.15;;;21.55;;
16478;SDS011;8350;52.316;10.530;2022-12-05T05:30:37;44.92;;;23.38;;
16478;SDS011;8350;52.316;10.530;2022-12-05T05:33:04;37.78;;;22.33;;
16478;SDS011;8350;52.316;10.530;2022-12-05T05:35:35;45.67;;;21.40;;
16478;SDS011;8350;52.316;10.530;2022-12-05T05:38:03;40.90;;;21.85;;
16478;SDS011;8350;52.316;10.530;2022-12-05T05:40:30;41.05;;;21.55;;
16478;SDS011;8350;52.316;10.530;2022-12-05T05:43:00;40.40;;;21.85;;
16478;SDS011;8350;52.316;10.530;2022-12-05T05:45:35;40.45;;;23.67;;
16478;SDS011;8350;52.316;10.530;2022-12-05T05:48:02;44.72;;;23.63;;
16478;SDS011;8350;52.316;10.530;2022-12-05T05:50:30;43.20;;;24.05;;
16478;SDS011;8350;52.316;10.530;2022-12-05T05:52:58;43.95;;;23.73;;
16478;SDS011;8350;52.316;10.530;2022-12-05T06:02:01;43.55;;;25.20;;
16478;SDS011;8350;52.316;10.530;2022-12-05T06:04:50;37.47;;;23.35;;
16478;SDS011;8350;52.316;10.530;2022-12-05T06:07:17;40.42;;;24.63;;
16478;SDS011;8350;52.316;10.530;2022-12-05T06:09:46;39.13;;;23.98;;
16478;SDS011;8350;52.316;10.530;2022-12-05T06:12:15;36.65;;;23.05;;
16478;SDS011;8350;52.316;10.530;2022-12-05T06:14:42;41.35;;;22.85;;
16478;SDS011;8350;52.316;10.530;2022-12-05T06:17:10;36.13;;;22.80;;
16478;SDS011;8350;52.316;10.530;2022-12-05T06:19:50;41.88;;;24.13;;
16478;SDS011;8350;52.316;10.530;2022-12-05T06:22:17;37.80;;;22.02;;
16478;SDS011;8350;52.316;10.530;2022-12-05T06:24:47;42.13;;;22.35;;
16478;SDS011;8350;52.316;10.530;2022-12-05T06:27:16;37.15;;;22.80;;
16478;SDS011;8350;52.316;10.530;2022-12-05T06:29:45;39.17;;;22.52;;
16478;SDS011;8350;52.316;10.530;2022-12-05T06:32:15;34.70;;;22.00;;
16478;SDS011;8350;52.316;10.530;2022-12-05T06:34:44;34.63;;;20.98;;
16478;SDS011;8350;52.316;10.530;2022-12-05T06:37:12;33.33;;;20.05;;
16478;SDS011;8350;52.316;10.530;2022-12-05T06:42:32;31.95;;;19.98;;
16478;SDS011;8350;52.316;10.530;2022-12-05T06:45:13;34.65;;;19.48;;
16478;SDS011;8350;52.316;10.530;2022-12-05T06:47:40;31.23;;;20.02;;
16478;SDS011;8350;52.316;10.530;2022-12-05T06:50:10;33.15;;;19.63;;
16478;SDS011;8350;52.316;10.530;2022-12-05T06:52:37;33.88;;;18.33;;
16478;SDS011;8350;52.316;10.530;2022-12-05T06:55:06;27.70;;;18.33;;
16478;SDS011;8350;52.316;10.530;2022-12-05T06:57:33;29.35;;;19.35;;
16478;SDS011;8350;52.316;10.530;2022-12-05T07:00:00;29.95;;;17.90;;
16478;SDS011;8350;52.316;10.530;2022-12-05T07:02:41;28.90;;;17.38;;
16478;SDS011;8350;52.316;10.530;2022-12-05T07:05:08;28.58;;;17.63;;
16478;SDS011;8350;52.316;10.530;2022-12-05T07:07:35;27.17;;;18.17;;
16478;SDS011;8350;52.316;10.530;2022-12-05T07:10:03;27.85;;;16.05;;
16478;SDS011;8350;52.316;10.530;2022-12-05T07:12:32;30.05;;;17.40;;
16478;SDS011;8350;52.316;10.530;2022-12-05T07:14:59;23.60;;;16.38;;
16478;SDS011;8350;52.316;10.530;2022-12-05T07:17:26;25.58;;;17.08;;
16478;SDS011;8350;52.316;10.530;2022-12-05T07:19:53;24.30;;;16.33;;
16478;SDS011;8350;52.316;10.530;2022-12-05T07:22:21;29.50;;;16.20;;
16478;SDS011;8350;52.316;10.530;2022-12-05T07:24:49;23.45;;;16.30;;
16478;SDS011;8350;52.316;10.530;2022-12-05T07:27:18;26.25;;;16.35;;
16478;SDS011;8350;52.316;10.530;2022-12-05T07:29:47;27.80;;;15.73;;
16478;SDS011;8350;52.316;10.530;2022-12-05T07:32:14;23.23;;;14.68;;
16478;SDS011;8350;52.316;10.530;2022-12-05T07:34:51;23.17;;;14.95;;
16478;SDS011;8350;52.316;10.530;2022-12-05T07:37:18;26.38;;;15.55;;
16478;SDS011;8350;52.316;10.530;2022-12-05T07:39:45;22.50;;;13.82;;
16478;SDS011;8350;52.316;10.530;2022-12-05T07:42:12;23.13;;;14.75;;
16478;SDS011;8350;52.316;10.530;2022-12-05T07:44:39;23.95;;;14.32;;
16478;SDS011;8350;52.316;10.530;2022-12-05T07:47:07;23.25;;;13.52;;
16478;SDS011;8350;52.316;10.530;2022-12-05T07:49:34;23.17;;;14.30;;
16478;SDS011;8350;52.316;10.530;2022-12-05T07:52:01;24.27;;;14.55;;
16478;SDS011;8350;52.316;10.530;2022-12-05T07:54:28;22.52;;;14.82;;
16478;SDS011;8350;52.316;10.530;2022-12-05T07:56:55;20.13;;;14.00;;
16478;SDS011;8350;52.316;10.530;2022-12-05T07:59:26;22.73;;;13.85;;
16478;SDS011;8350;52.316;10.530;2022-12-05T08:01:53;24.05;;;14.35;;
16478;SDS011;8350;52.316;10.530;2022-12-05T08:04:21;19.50;;;12.73;;
16478;SDS011;8350;52.316;10.530;2022-12-05T08:06:48;24.98;;;12.88;;
16478;SDS011;8350;52.316;10.530;2022-12-05T08:09:18;22.58;;;14.85;;
16478;SDS011;8350;52.316;10.530;2022-12-05T08:11:47;20.13;;;13.38;;
16478;SDS011;8350;52.316;10.530;2022-12-05T08:14:14;22.75;;;15.32;;
16478;SDS011;8350;52.316;10.530;2022-12-05T08:16:41;26.10;;;17.20;;
16478;SDS011;8350;52.316;10.530;2022-12-05T08:19:09;25.30;;;15.77;;
16478;SDS011;8350;52.316;10.530;2022-12-05T08:21:39;22.83;;;15.25;;
16478;SDS011;8350;52.316;10.530;2022-12-05T08:24:06;22.67;;;14.48;;
16478;SDS011;8350;52.316;10.530;2022-12-05T08:26:34;20.73;;;13.70;;
16478;SDS011;8350;52.316;10.530;2022-12-05T08:29:03;21.95;;;14.75;;
16478;SDS011;8350;52.316;10.530;2022-12-05T08:31:31;21.45;;;14.38;;
16478;SDS011;8350;52.316;10.530;2022-12-05T08:34:01;24.77;;;16.00;;
16478;SDS011;8350;52.316;10.530;2022-12-05T08:36:28;23.80;;;17.20;;
16478;SDS011;8350;52.316;10.530;2022-12-05T08:38:57;22.10;;;15.20;;
16478;SDS011;8350;52.316;10.530;2022-12-05T08:41:25;24.58;;;15.95;;
16478;SDS011;8350;52.316;10.530;2022-12-05T08:43:54;23.98;;;15.63;;
16478;SDS011;8350;52.316;10.530;2022-12-05T08:46:22;22.25;;;16.08;;
16478;SDS011;8350;52.316;10.530;2022-12-05T08:48:50;22.23;;;15.23;;
16478;SDS011;8350;52.316;10.530;2022-12-05T08:51:19;22.70;;;15.52;;
16478;SDS011;8350;52.316;10.530;2022-12-05T08:53:46;22.25;;;15.27;;
16478;SDS011;8350;52.316;10.530;2022-12-05T08:56:14;22.77;;;16.35;;
16478;SDS011;8350;52.316;10.530;2022-12-05T08:58:47;23.35;;;16.02;;
16478;SDS011;8350;52.316;10.530;2022-12-05T09:01:15;21.15;;;15.23;;
16478;SDS011;8350;52.316;10.530;2022-12-05T09:03:44;21.77;;;15.80;;
16478;SDS011;8350;52.316;10.530;2022-12-05T09:06:12;19.40;;;14.25;;
16478;SDS011;8350;52.316;10.530;2022-12-05T09:08:40;19.90;;;13.52;;
16478;SDS011;8350;52.316;10.530;2022-12-05T09:11:09;20.63;;;13.55;;
16478;SDS011;8350;52.316;10.530;2022-12-05T09:13:39;21.20;;;14.63;;
16478;SDS011;8350;52.316;10.530;2022-12-05T09:16:07;24.33;;;16.40;;
16478;SDS011;8350;52.316;10.530;2022-12-05T09:18:36;22.00;;;15.88;;
16478;SDS011;8350;52.316;10.530;2022-12-05T09:21:04;25.13;;;17.08;;
16478;SDS011;8350;52.316;10.530;2022-12-05T09:23:31;33.03;;;22.17;;
16478;SDS011;8350;52.316;10.530;2022-12-05T09:25:58;31.05;;;22.00;;
16478;SDS011;8350;52.316;10.530;2022-12-05T09:28:26;21.10;;;13.90;;
16478;SDS011;8350;52.316;10.530;2022-12-05T09:30:58;24.55;;;16.13;;
16478;SDS011;8350;52.316;10.530;2022-12-05T09:33:27;22.27;;;15.27;;
16478;SDS011;8350;52.316;10.530;2022-12-05T09:35:54;22.35;;;14.88;;
16478;SDS011;8350;52.316;10.530;2022-12-05T09:38:21;24.17;;;15.25;;
16478;SDS011;8350;52.316;10.530;2022-12-05T09:40:49;22.05;;;15.40;;
16478;SDS011;8350;52.316;10.530;2022-12-05T09:43:25;20.50;;;13.63;;
16478;SDS011;8350;52.316;10.530;2022-12-05T09:46:00;22.58;;;14.38;;
16478;SDS011;8350;52.316;10.530;2022-12-05T09:48:32;23.05;;;15.13;;
16478;SDS011;8350;52.316;10.530;2022-12-05T09:51:16;21.00;;;13.57;;
16478;SDS011;8350;52.316;10.530;2022-12-05T09:54:07;21.98;;;14.15;;
16478;SDS011;8350;52.316;10.530;2022-12-05T09:56:35;23.38;;;15.98;;
16478;SDS011;8350;52.316;10.530;2022-12-05T09:59:04;21.25;;;14.18;;
16478;SDS011;8350;52.316;10.530;2022-12-05T10:01:39;21.70;;;15.20;;
16478;SDS011;8350;52.316;10.530;2022-12-05T10:04:16;22.85;;;16.08;;
16478;SDS011;8350;52.316;10.530;2022-12-05T10:06:52;23.42;;;15.88;;
16478;SDS011;8350;52.316;10.530;2022-12-05T10:09:29;22.83;;;14.73;;
16478;SDS011;8350;52.316;10.530;2022-12-05T10:12:14;22.83;;;16.08;;
16478;SDS011;8350;52.316;10.530;2022-12-05T10:14:51;19.10;;;14.50;;
16478;SDS011;8350;52.316;10.530;2022-12-05T10:17:26;19.30;;;13.30;;
16478;SDS011;8350;52.316;10.530;2022-12-05T10:19:58;20.45;;;13.35;;
16478;SDS011;8350;52.316;10.530;2022-12-05T10:22:29;20.08;;;13.10;;
16478;SDS011;8350;52.316;10.530;2022-12-05T10:25:10;20.13;;;14.20;;
16478;SDS011;8350;52.316;10.530;2022-12-05T10:27:42;19.20;;;13.93;;
16478;SDS011;8350;52.316;10.530;2022-12-05T10:30:14;24.67;;;18.75;;
16478;SDS011;8350;52.316;10.530;2022-12-05T10:32:47;25.13;;;17.42;;
16478;SDS011;8350;52.316;10.530;2022-12-05T10:35:18;22.88;;;15.88;;
16478;SDS011;8350;52.316;10.530;2022-12-05T10:37:48;20.63;;;15.68;;
16478;SDS011;8350;52.316;10.530;2022-12-05T10:40:17;21.88;;;15.95;;
16478;SDS011;8350;52.316;10.530;2022-12-05T10:42:45;21.27;;;14.07;;
16478;SDS011;8350;52.316;10.530;2022-12-05T10:45:14;18.83;;;13.30;;
16478;SDS011;8350;52.316;10.530;2022-12-05T10:47:44;16.77;;;13.45;;
16478;SDS011;8350;52.316;10.530;2022-12-05T10:50:20;16.42;;;13.20;;
16478;SDS011;8350;52.316;10.530;2022-12-05T10:52:50;21.50;;;13.38;;
16478;SDS011;8350;52.316;10.530;2022-12-05T10:55:18;21.30;;;14.40;;
16478;SDS011;8350;52.316;10.530;2022-12-05T10:57:49;22.25;;;14.75;;
16478;SDS011;8350;52.316;10.530;2022-12-05T11:00:19;22.40;;;14.23;;
16478;SDS011;8350;52.316;10.530;2022-12-05T11:02:50;18.52;;;13.88;;
16478;SDS011;8350;52.316;10.530;2022-12-05T11:05:26;17.30;;;12.18;;
16478;SDS011;8350;52.316;10.530;2022-12-05T11:07:54;20.95;;;14.30;;
16478;SDS011;8350;52.316;10.530;2022-12-05T11:10:24;24.80;;;14.45;;
16478;SDS011;8350;52.316;10.530;2022-12-05T11:12:54;20.05;;;14.32;;
16478;SDS011;8350;52.316;10.530;2022-12-05T11:15:22;21.25;;;14.57;;
16478;SDS011;8350;52.316;10.530;2022-12-05T11:17:54;19.52;;;12.60;;
16478;SDS011;8350;52.316;10.530;2022-12-05T11:23:19;18.75;;;12.98;;
16478;SDS011;8350;52.316;10.530;2022-12-05T11:25:49;18.45;;;13.13;;
16478;SDS011;8350;52.316;10.530;2022-12-05T11:30:59;16.92;;;12.48;;
16478;SDS011;8350;52.316;10.530;2022-12-05T11:33:30;16.95;;;11.90;;
16478;SDS011;8350;52.316;10.530;2022-12-05T11:36:00;18.38;;;13.35;;
16478;SDS011;8350;52.316;10.530;2022-12-05T11:38:32;17.92;;;11.48;;
16478;SDS011;8350;52.316;10.530;2022-12-05T11:41:04;15.38;;;11.80;;
16478;SDS011;8350;52.316;10.530;2022-12-05T11:43:51;13.65;;;11.57;;
16478;SDS011;8350;52.316;10.530;2022-12-05T11:46:31;13.73;;;10.50;;
16478;SDS011;8350;52.316;10.530;2022-12-05T11:52:07;14.45;;;10.68;;
16478;SDS011;8350;52.316;10.530;2022-12-05T11:54:49;35.60;;;20.10;;
16478;SDS011;8350;52.316;10.530;2022-12-05T11:57:25;36.08;;;21.95;;
16478;SDS011;8350;52.316;10.530;2022-12-05T12:00:06;39.35;;;23.33;;
16478;SDS011;8350;52.316;10.530;2022-12-05T12:02:50;24.90;;;16.52;;
16478;SDS011;8350;52.316;10.530;2022-12-05T12:05:41;40.45;;;24.63;;
16478;SDS011;8350;52.316;10.530;2022-12-05T12:08:17;13.93;;;11.57;;
16478;SDS011;8350;52.316;10.530;2022-12-05T12:10:53;17.40;;;13.43;;
16478;SDS011;8350;52.316;10.530;2022-12-05T12:13:38;14.25;;;10.98;;
16478;SDS011;8350;52.316;10.530;2022-12-05T12:16:16;12.82;;;10.57;;
16478;SDS011;8350;52.316;10.530;2022-12-05T12:19:00;14.98;;;10.52;;
16478;SDS011;8350;52.316;10.530;2022-12-05T12:22:03;14.27;;;10.30;;
16478;SDS011;8350;52.316;10.530;2022-12-05T12:24:49;12.15;;;9.35;;
16478;SDS011;8350;52.316;10.530;2022-12-05T12:27:28;11.52;;;9.00;;
16478;SDS011;8350;52.316;10.530;2022-12-05T12:30:10;13.05;;;9.35;;
16478;SDS011;8350;52.316;10.530;2022-12-05T12:32:42;14.68;;;11.43;;
16478;SDS011;8350;52.316;10.530;2022-12-05T12:35:27;14.55;;;11.52;;
16478;SDS011;8350;52.316;10.530;2022-12-05T12:38:06;13.85;;;10.63;;
16478;SDS011;8350;52.316;10.530;2022-12-05T12:40:45;13.57;;;10.38;;
16478;SDS011;8350;52.316;10.530;2022-12-05T12:43:18;12.73;;;10.15;;
16478;SDS011;8350;52.316;10.530;2022-12-05T12:46:07;11.25;;;9.55;;
16478;SDS011;8350;52.316;10.530;2022-12-05T12:49:05;13.10;;;8.98;;
16478;SDS011;8350;52.316;10.530;2022-12-05T12:51:59;10.38;;;8.35;;
16478;SDS011;8350;52.316;10.530;2022-12-05T12:57:28;9.27;;;7.95;;
16478;SDS011;8350;52.316;10.530;2022-12-05T13:00:10;8.88;;;7.90;;
16478;SDS011;8350;52.316;10.530;2022-12-05T13:02:45;9.27;;;7.97;;
16478;SDS011;8350;52.316;10.530;2022-12-05T13:05:19;10.02;;;8.98;;
16478;SDS011;8350;52.316;10.530;2022-12-05T13:07:50;9.80;;;8.80;;
16478;SDS011;8350;52.316;10.530;2022-12-05T13:10:24;11.15;;;8.50;;
16478;SDS011;8350;52.316;10.530;2022-12-05T13:12:59;10.50;;;9.23;;
16478;SDS011;8350;52.316;10.530;2022-12-05T13:15:30;11.35;;;8.93;;
16478;SDS011;8350;52.316;10.530;2022-12-05T13:18:01;9.27;;;8.35;;
16478;SDS011;8350;52.316;10.530;2022-12-05T13:20:31;10.57;;;9.18;;
16478;SDS011;8350;52.316;10.530;2022-12-05T13:23:01;9.15;;;8.25;;
16478;SDS011;8350;52.316;10.530;2022-12-05T13:25:32;8.82;;;7.93;;
16478;SDS011;8350;52.316;10.530;2022-12-05T13:28:06;8.85;;;7.65;;
16478;SDS011;8350;52.316;10.530;2022-12-05T13:30:48;7.95;;;7.13;;
16478;SDS011;8350;52.316;10.530;2022-12-05T13:33:32;8.60;;;7.35;;
16478;SDS011;8350;52.316;10.530;2022-12-05T13:36:05;8.27;;;7.43;;
16478;SDS011;8350;52.316;10.530;2022-12-05T13:38:56;8.18;;;7.30;;
16478;SDS011;8350;52.316;10.530;2022-12-05T13:41:43;8.10;;;7.05;;
16478;SDS011;8350;52.316;10.530;2022-12-05T13:44:32;7.57;;;6.57;;
16478;SDS011;8350;52.316;10.530;2022-12-05T13:47:02;8.57;;;7.22;;
16478;SDS011;8350;52.316;10.530;2022-12-05T13:49:35;10.23;;;8.80;;
16478;SDS011;8350;52.316;10.530;2022-12-05T13:52:11;9.77;;;8.77;;
16478;SDS011;8350;52.316;10.530;2022-12-05T13:54:41;8.82;;;7.65;;
16478;SDS011;8350;52.316;10.530;2022-12-05T14:00:21;7.93;;;6.38;;
16478;SDS011;8350;52.316;10.530;2022-12-05T14:02:53;7.50;;;6.75;;
16478;SDS011;8350;52.316;10.530;2022-12-05T14:05:31;7.78;;;6.78;;
16478;SDS011;8350;52.316;10.530;2022-12-05T14:11:16;6.15;;;5.50;;
16478;SDS011;8350;52.316;10.530;2022-12-05T14:13:43;6.85;;;5.93;;
16478;SDS011;8350;52.316;10.530;2022-12-05T14:19:13;9.25;;;7.13;;
16478;SDS011;8350;52.316;10.530;2022-12-05T14:21:56;6.90;;;6.18;;
16478;SDS011;8350;52.316;10.530;2022-12-05T14:24:31;10.43;;;6.60;;
16478;SDS011;8350;52.316;10.530;2022-12-05T14:27:06;6.88;;;6.18;;
16478;SDS011;8350;52.316;10.530;2022-12-05T14:29:46;7.28;;;6.57;;
16478;SDS011;8350;52.316;10.530;2022-12-05T14:32:27;7.32;;;6.30;;
16478;SDS011;8350;52.316;10.530;2022-12-05T14:35:00;7.88;;;6.70;;
16478;SDS011;8350;52.316;10.530;2022-12-05T14:37:37;7.78;;;6.85;;
16478;SDS011;8350;52.316;10.530;2022-12-05T14:40:16;6.57;;;5.85;;
16478;SDS011;8350;52.316;10.530;2022-12-05T14:42:50;7.22;;;6.47;;
16478;SDS011;8350;52.316;10.530;2022-12-05T14:45:24;7.47;;;6.28;;
16478;SDS011;8350;52.316;10.530;2022-12-05T14:47:54;7.25;;;6.55;;
16478;SDS011;8350;52.316;10.530;2022-12-05T14:50:34;7.22;;;6.50;;
16478;SDS011;8350;52.316;10.530;2022-12-05T14:56:04;6.47;;;5.75;;
16478;SDS011;8350;52.316;10.530;2022-12-05T14:58:39;6.10;;;5.50;;
16478;SDS011;8350;52.316;10.530;2022-12-05T15:01:13;7.47;;;6.07;;
16478;SDS011;8350;52.316;10.530;2022-12-05T15:03:46;7.70;;;6.65;;
16478;SDS011;8350;52.316;10.530;2022-12-05T15:06:30;7.55;;;6.05;;
16478;SDS011;8350;52.316;10.530;2022-12-05T15:09:00;6.82;;;6.13;;
16478;SDS011;8350;52.316;10.530;2022-12-05T15:11:33;6.72;;;6.03;;
16478;SDS011;8350;52.316;10.530;2022-12-05T15:14:06;7.20;;;6.50;;
16478;SDS011;8350;52.316;10.530;2022-12-05T15:16:47;6.57;;;5.90;;
16478;SDS011;8350;52.316;10.530;2022-12-05T15:19:23;6.55;;;5.75;;
16478;SDS011;8350;52.316;10.530;2022-12-05T15:21:56;7.25;;;6.35;;
16478;SDS011;8350;52.316;10.530;2022-12-05T15:24:35;7.53;;;6.13;;
16478;SDS011;8350;52.316;10.530;2022-12-05T15:27:04;8.88;;;6.85;;
16478;SDS011;8350;52.316;10.530;2022-12-05T15:29:36;7.70;;;7.00;;
16478;SDS011;8350;52.316;10.530;2022-12-05T15:32:05;9.10;;;8.20;;
16478;SDS011;8350;52.316;10.530;2022-12-05T15:34:43;9.93;;;8.93;;
16478;SDS011;8350;52.316;10.530;2022-12-05T15:37:15;9.90;;;8.38;;